createdAt,value
2018-07-10T00:00:48.551Z,19.60
2018-07-10T00:03:27.607Z,19.50
2018-07-10T00:06:26.489Z,19.50
2018-07-10T00:11:08.629Z,19.40
2018-07-10T00:13:36.102Z,19.30
2018-07-10T00:16:03.925Z,19.00
2018-07-10T00:18:31.467Z,19.00
2018-07-10T00:20:59.020Z,19.00
2018-07-10T00:23:26.538Z,19.00
2018-07-10T00:25:54.068Z,19.00
2018-07-10T00:28:21.601Z,19.00
2018-07-10T00:30:49.123Z,19.00
2018-07-10T00:33:16.667Z,18.90
2018-07-10T00:35:44.249Z,18.90
2018-07-10T00:38:23.250Z,19.00
2018-07-10T00:43:18.182Z,19.00
2018-07-10T00:45:45.730Z,18.90
2018-07-10T00:48:13.250Z,18.90
2018-07-10T00:50:40.843Z,18.70
2018-07-10T00:53:08.386Z,18.90
2018-07-10T00:58:03.763Z,18.80
2018-07-10T01:00:34.522Z,18.90
2018-07-10T01:03:02.117Z,18.90
2018-07-10T01:05:30.362Z,18.90
2018-07-10T01:07:58.298Z,18.80
2018-07-10T01:10:25.810Z,18.80
2018-07-10T01:12:53.384Z,18.90
2018-07-10T01:15:22.419Z,18.90
2018-07-10T01:17:50.035Z,18.90
2018-07-10T01:20:18.754Z,19.00
2018-07-10T01:22:46.493Z,19.00
2018-07-10T01:25:14.581Z,19.00
2018-07-10T01:27:42.341Z,19.00
2018-07-10T01:30:09.977Z,18.90
2018-07-10T01:32:38.894Z,18.80
2018-07-10T01:35:06.423Z,18.80
2018-07-10T01:37:34.870Z,18.80
2018-07-10T01:40:03.000Z,18.80
2018-07-10T01:42:30.713Z,18.70
2018-07-10T01:44:58.269Z,18.70
2018-07-10T01:47:25.846Z,18.70
2018-07-10T01:49:53.577Z,18.70
2018-07-10T01:52:21.055Z,18.60
2018-07-10T01:54:48.633Z,18.60
2018-07-10T01:57:16.134Z,18.60
2018-07-10T01:59:43.659Z,18.60
2018-07-10T02:02:11.481Z,18.70
2018-07-10T02:04:39.029Z,18.60
2018-07-10T02:07:06.582Z,18.60
2018-07-10T02:09:34.423Z,18.50
2018-07-10T02:12:01.970Z,18.30
2018-07-10T02:14:29.486Z,18.40
2018-07-10T02:16:57.023Z,18.40
2018-07-10T02:19:24.561Z,18.30
2018-07-10T02:21:52.502Z,18.30
2018-07-10T02:24:22.537Z,18.30
2018-07-10T02:26:50.582Z,18.30
2018-07-10T02:29:18.778Z,18.30
2018-07-10T02:31:47.335Z,18.30
2018-07-10T02:34:15.324Z,18.30
2018-07-10T02:36:42.815Z,18.30
2018-07-10T02:39:10.388Z,18.40
2018-07-10T02:41:38.090Z,18.40
2018-07-10T02:44:05.935Z,18.50
2018-07-10T02:46:34.639Z,18.50
2018-07-10T02:49:10.019Z,18.50
2018-07-10T02:51:42.230Z,18.50
2018-07-10T02:54:09.782Z,18.40
2018-07-10T02:56:37.829Z,18.30
2018-07-10T02:59:05.343Z,18.10
2018-07-10T03:01:33.013Z,18.10
2018-07-10T03:04:00.967Z,18.00
2018-07-10T03:06:29.809Z,18.00
2018-07-10T03:08:57.294Z,18.00
2018-07-10T03:11:24.895Z,18.00
2018-07-10T03:13:52.475Z,18.00
2018-07-10T03:18:47.754Z,18.00
2018-07-10T03:21:15.310Z,18.00
2018-07-10T03:23:42.800Z,18.10
2018-07-10T03:26:10.371Z,18.00
2018-07-10T03:28:37.981Z,17.90
2018-07-10T03:31:05.529Z,18.00
2018-07-10T03:33:33.101Z,17.90
2018-07-10T03:36:00.699Z,17.90
2018-07-10T03:38:28.514Z,17.90
2018-07-10T03:40:56.049Z,18.00
2018-07-10T03:43:23.674Z,18.00
2018-07-10T03:45:51.275Z,18.00
2018-07-10T03:48:18.845Z,18.00
2018-07-10T03:50:46.658Z,18.00
2018-07-10T03:53:14.133Z,18.10
2018-07-10T03:55:41.686Z,18.10
2018-07-10T03:58:09.279Z,18.10
2018-07-10T04:00:37.142Z,18.10
2018-07-10T04:03:04.763Z,18.10
2018-07-10T04:05:32.755Z,18.10
2018-07-10T04:08:02.936Z,18.00
2018-07-10T04:10:32.661Z,18.00
2018-07-10T04:13:10.906Z,18.00
2018-07-10T04:15:39.369Z,18.00
2018-07-10T04:18:12.179Z,18.00
2018-07-10T04:20:51.199Z,18.00
2018-07-10T04:23:18.820Z,18.00
2018-07-10T04:25:51.237Z,18.00
2018-07-10T04:28:29.076Z,17.90
2018-07-10T04:31:03.310Z,17.90
2018-07-10T04:33:30.932Z,17.90
2018-07-10T04:35:58.742Z,18.00
2018-07-10T04:38:27.766Z,18.00
2018-07-10T04:40:59.386Z,18.10
2018-07-10T04:43:29.757Z,18.00
2018-07-10T04:45:57.370Z,18.00
2018-07-10T04:48:34.289Z,17.90
2018-07-10T04:51:13.835Z,18.00
2018-07-10T04:53:44.337Z,18.00
2018-07-10T04:56:12.994Z,18.00
2018-07-10T04:58:42.219Z,18.00
2018-07-10T05:01:10.062Z,18.00
2018-07-10T05:03:37.666Z,18.00
2018-07-10T05:06:06.578Z,18.00
2018-07-10T05:08:34.436Z,18.00
2018-07-10T05:13:29.795Z,18.00
2018-07-10T05:16:00.374Z,17.60
2018-07-10T05:18:28.345Z,18.00
2018-07-10T05:20:56.270Z,18.00
2018-07-10T05:23:24.950Z,18.00
2018-07-10T05:25:54.391Z,17.90
2018-07-10T05:28:23.067Z,17.90
2018-07-10T05:33:20.402Z,17.90
2018-07-10T05:35:47.914Z,17.90
2018-07-10T05:38:17.707Z,17.90
2018-07-10T05:43:14.176Z,17.50
2018-07-10T05:45:42.778Z,17.80
2018-07-10T05:48:10.434Z,17.80
2018-07-10T05:50:38.805Z,17.80
2018-07-10T05:53:08.821Z,17.80
2018-07-10T05:55:44.422Z,17.80
2018-07-10T05:58:12.189Z,17.70
2018-07-10T06:00:40.941Z,17.70
2018-07-10T06:03:08.565Z,17.60
2018-07-10T06:05:36.050Z,17.80
2018-07-10T06:08:03.846Z,17.90
2018-07-10T06:10:31.535Z,18.00
2018-07-10T06:13:00.121Z,18.10
2018-07-10T06:15:28.036Z,18.00
2018-07-10T06:17:55.828Z,18.00
2018-07-10T06:20:24.050Z,18.00
2018-07-10T06:22:52.792Z,18.10
2018-07-10T06:25:22.263Z,18.10
2018-07-10T06:27:55.653Z,18.10
2018-07-10T06:30:23.277Z,18.10
2018-07-10T06:32:56.402Z,18.00
2018-07-10T06:35:32.301Z,18.00
2018-07-10T06:38:00.272Z,18.00
2018-07-10T06:40:28.143Z,18.10
2018-07-10T06:43:14.090Z,18.20
2018-07-10T06:45:41.696Z,18.10
2018-07-10T06:48:11.094Z,18.20
2018-07-10T06:50:38.706Z,18.10
2018-07-10T06:53:06.717Z,18.10
2018-07-10T06:58:07.221Z,18.00
2018-07-10T07:00:34.947Z,18.00
2018-07-10T07:03:02.539Z,18.00
2018-07-10T07:05:30.078Z,17.90
2018-07-10T07:07:57.640Z,18.00
2018-07-10T07:10:25.417Z,17.90
2018-07-10T07:12:53.052Z,17.80
2018-07-10T07:15:21.128Z,17.80
2018-07-10T07:17:50.830Z,17.70
2018-07-10T07:20:19.363Z,17.80
2018-07-10T07:22:47.185Z,17.90
2018-07-10T07:25:14.651Z,17.80
2018-07-10T07:27:42.218Z,17.80
2018-07-10T07:30:09.746Z,17.90
2018-07-10T07:32:37.254Z,18.00
2018-07-10T07:35:04.964Z,18.00
2018-07-10T07:37:35.039Z,18.00
2018-07-10T07:40:02.748Z,18.10
2018-07-10T07:42:30.362Z,18.20
2018-07-10T07:44:58.041Z,18.20
2018-07-10T07:47:28.252Z,18.10
2018-07-10T07:49:56.262Z,18.10
2018-07-10T07:52:24.045Z,18.10
2018-07-10T07:54:51.731Z,18.10
2018-07-10T07:57:20.750Z,18.10
2018-07-10T07:59:48.313Z,18.20
2018-07-10T08:02:15.873Z,18.20
2018-07-10T08:04:43.477Z,18.30
2018-07-10T08:07:11.042Z,18.30
2018-07-10T08:09:38.726Z,18.20
2018-07-10T08:12:06.327Z,18.30
2018-07-10T08:14:33.900Z,18.40
2018-07-10T08:17:01.780Z,18.30
2018-07-10T08:19:29.333Z,18.30
2018-07-10T08:21:56.964Z,18.30
2018-07-10T08:24:24.663Z,18.40
2018-07-10T08:26:54.703Z,18.40
2018-07-10T08:29:23.133Z,18.40
2018-07-10T08:31:51.781Z,18.20
2018-07-10T08:34:19.367Z,18.20
2018-07-10T08:36:47.083Z,18.20
2018-07-10T08:39:14.677Z,18.30
2018-07-10T08:41:44.661Z,18.40
2018-07-10T08:44:12.967Z,18.40
2018-07-10T08:46:40.622Z,18.50
2018-07-10T08:49:08.524Z,18.40
2018-07-10T08:51:36.592Z,18.40
2018-07-10T08:54:04.426Z,18.40
2018-07-10T08:59:00.505Z,18.30
2018-07-10T09:01:29.082Z,18.20
2018-07-10T09:03:56.756Z,18.10
2018-07-10T09:06:24.443Z,18.10
2018-07-10T09:08:52.058Z,18.10
2018-07-10T09:11:19.692Z,18.10
2018-07-10T09:13:47.262Z,18.10
2018-07-10T09:16:14.816Z,18.20
2018-07-10T09:18:42.475Z,18.10
2018-07-10T09:21:10.154Z,18.10
2018-07-10T09:23:37.793Z,18.10
2018-07-10T09:28:34.710Z,18.10
2018-07-10T09:31:03.422Z,18.20
2018-07-10T09:33:31.075Z,18.20
2018-07-10T09:35:58.822Z,18.30
2018-07-10T09:38:26.468Z,18.30
2018-07-10T09:40:54.813Z,18.30
2018-07-10T09:43:24.255Z,18.40
2018-07-10T09:45:51.871Z,18.40
2018-07-10T09:48:19.470Z,18.40
2018-07-10T09:50:48.038Z,18.30
2018-07-10T09:53:15.667Z,18.30
2018-07-10T09:55:43.339Z,18.30
2018-07-10T09:58:11.322Z,18.40
2018-07-10T10:00:44.742Z,18.30
2018-07-10T10:03:12.474Z,18.40
2018-07-10T10:05:42.116Z,18.40
2018-07-10T10:08:11.611Z,18.40
2018-07-10T10:10:39.615Z,18.40
2018-07-10T10:15:35.782Z,18.40
2018-07-10T10:18:05.873Z,18.30
2018-07-10T10:20:35.554Z,18.30
2018-07-10T10:23:03.838Z,18.30
2018-07-10T10:25:34.568Z,18.30
2018-07-10T10:28:03.663Z,18.40
2018-07-10T10:30:31.717Z,18.30
2018-07-10T10:32:59.305Z,18.30
2018-07-10T10:35:26.925Z,18.30
2018-07-10T10:37:54.525Z,18.40
2018-07-10T10:40:22.160Z,18.40
2018-07-10T10:42:50.023Z,18.40
2018-07-10T10:45:17.638Z,18.40
2018-07-10T10:47:45.247Z,18.40
2018-07-10T10:50:12.899Z,18.50
2018-07-10T10:52:40.513Z,18.40
2018-07-10T10:55:08.365Z,18.40
2018-07-10T10:57:37.705Z,18.50
2018-07-10T11:00:06.516Z,18.50
2018-07-10T11:02:34.344Z,18.50
2018-07-10T11:05:02.374Z,18.50
2018-07-10T11:07:30.975Z,18.50
2018-07-10T11:09:58.525Z,18.50
2018-07-10T11:12:26.929Z,18.50
2018-07-10T11:14:54.549Z,18.60
2018-07-10T11:17:27.031Z,18.60
2018-07-10T11:20:30.522Z,18.60
2018-07-10T11:23:02.714Z,18.60
2018-07-10T11:25:35.992Z,18.60
2018-07-10T11:28:05.535Z,18.70
2018-07-10T11:30:33.610Z,18.70
2018-07-10T11:33:02.601Z,18.80
2018-07-10T11:35:30.662Z,18.80
2018-07-10T11:38:01.111Z,18.80
2018-07-10T11:40:29.454Z,18.80
2018-07-10T11:42:57.149Z,18.80
2018-07-10T11:45:24.761Z,18.70
2018-07-10T11:47:52.536Z,18.70
2018-07-10T11:50:20.419Z,18.70
2018-07-10T11:52:48.303Z,18.70
2018-07-10T11:55:16.532Z,18.60
2018-07-10T11:57:44.133Z,18.40
2018-07-10T12:00:11.941Z,18.60
2018-07-10T12:02:44.717Z,18.70
2018-07-10T12:05:13.967Z,18.70
2018-07-10T12:07:42.274Z,18.70
2018-07-10T12:10:19.582Z,18.70
2018-07-10T12:12:48.833Z,18.70
2018-07-10T12:15:16.561Z,18.70
2018-07-10T12:17:46.206Z,18.70
2018-07-10T12:20:14.351Z,18.70
2018-07-10T12:22:42.718Z,18.70
2018-07-10T12:25:11.265Z,18.70
2018-07-10T12:27:38.864Z,18.70
2018-07-10T12:30:08.140Z,18.70
2018-07-10T12:32:37.553Z,18.70
2018-07-10T12:35:06.125Z,18.60
2018-07-10T12:37:34.543Z,18.60
2018-07-10T12:40:02.282Z,18.60
2018-07-10T12:42:30.244Z,18.70
2018-07-10T12:44:58.033Z,18.70
2018-07-10T12:47:25.579Z,18.70
2018-07-10T12:49:53.413Z,18.80
2018-07-10T12:52:21.362Z,18.90
2018-07-10T12:54:49.334Z,19.00
2018-07-10T12:57:17.199Z,19.10
2018-07-10T12:59:44.898Z,19.20
2018-07-10T13:02:13.551Z,19.30
2018-07-10T13:04:41.535Z,19.30
2018-07-10T13:07:09.506Z,19.40
2018-07-10T13:12:05.348Z,19.50
2018-07-10T13:14:33.125Z,19.60
2018-07-10T13:17:00.746Z,19.60
2018-07-10T13:19:28.797Z,19.70
2018-07-10T13:21:56.517Z,19.70
2018-07-10T13:24:24.055Z,19.80
2018-07-10T13:26:51.691Z,19.70
2018-07-10T13:29:19.427Z,19.70
2018-07-10T13:31:47.416Z,19.60
2018-07-10T13:34:15.287Z,19.60
2018-07-10T13:36:42.954Z,19.70
2018-07-10T13:39:10.569Z,19.70
2018-07-10T13:41:38.360Z,19.70
2018-07-10T13:44:06.165Z,19.80
2018-07-10T13:46:34.096Z,19.80
2018-07-10T13:49:01.653Z,19.80
2018-07-10T13:51:29.706Z,19.90
2018-07-10T13:53:57.677Z,19.90
2018-07-10T13:56:25.678Z,19.90
2018-07-10T14:01:20.940Z,19.90
2018-07-10T14:03:49.333Z,19.80
2018-07-10T14:06:17.160Z,19.90
2018-07-10T14:08:44.805Z,19.90
2018-07-10T14:11:13.158Z,19.90
2018-07-10T14:13:40.704Z,19.90
2018-07-10T14:16:08.483Z,19.90
2018-07-10T14:18:36.238Z,19.90
2018-07-10T14:21:05.540Z,19.90
2018-07-10T14:23:33.174Z,19.90
2018-07-10T14:26:01.028Z,19.90
2018-07-10T14:28:28.940Z,19.90
2018-07-10T14:30:57.208Z,20.00
2018-07-10T14:33:24.958Z,19.90
2018-07-10T14:38:25.103Z,19.90
2018-07-10T14:40:53.008Z,20.00
2018-07-10T14:43:23.088Z,19.90
2018-07-10T14:45:51.943Z,19.90
2018-07-10T14:48:19.870Z,19.90
2018-07-10T14:50:50.045Z,19.70
2018-07-10T14:53:17.741Z,20.00
2018-07-10T14:55:45.543Z,20.10
2018-07-10T14:58:13.021Z,20.00
2018-07-10T15:00:40.911Z,20.10
2018-07-10T15:03:08.554Z,20.20
2018-07-10T15:05:36.205Z,20.10
2018-07-10T15:08:04.296Z,20.00
2018-07-10T15:10:32.051Z,20.00
2018-07-10T15:12:59.589Z,20.10
2018-07-10T15:15:27.560Z,20.20
2018-07-10T15:18:01.077Z,20.20
2018-07-10T15:20:29.099Z,20.40
2018-07-10T15:22:56.781Z,20.60
2018-07-10T15:25:24.717Z,20.70
2018-07-10T15:27:52.281Z,20.70
2018-07-10T15:30:19.922Z,20.70
2018-07-10T15:32:47.984Z,20.70
2018-07-10T15:35:15.457Z,20.60
2018-07-10T15:37:43.313Z,20.50
2018-07-10T15:40:11.041Z,20.50
2018-07-10T15:42:38.655Z,20.40
2018-07-10T15:45:06.458Z,20.40
2018-07-10T15:47:34.263Z,20.40
2018-07-10T15:50:01.850Z,20.30
2018-07-10T15:52:29.666Z,20.30
2018-07-10T15:54:57.547Z,20.30
2018-07-10T15:57:25.133Z,20.30
2018-07-10T15:59:53.047Z,20.30
2018-07-10T16:02:21.013Z,20.30
2018-07-10T16:04:51.227Z,20.30
2018-07-10T16:07:18.803Z,20.30
2018-07-10T16:09:46.702Z,20.20
2018-07-10T16:12:14.277Z,20.20
2018-07-10T16:14:42.149Z,20.30
2018-07-10T16:17:17.468Z,20.20
2018-07-10T16:19:46.253Z,20.20
2018-07-10T16:22:22.128Z,20.10
2018-07-10T16:24:52.886Z,20.10
2018-07-10T16:27:28.120Z,20.10
2018-07-10T16:29:55.703Z,20.10
2018-07-10T16:34:54.312Z,20.00
2018-07-10T16:37:22.290Z,20.00
2018-07-10T16:39:50.325Z,20.00
2018-07-10T16:42:23.713Z,20.00
2018-07-10T16:44:51.518Z,19.90
2018-07-10T16:48:13.654Z,19.90
2018-07-10T16:50:43.427Z,19.90
2018-07-10T16:53:12.847Z,20.10
2018-07-10T16:55:40.594Z,20.10
2018-07-10T16:58:08.357Z,20.30
2018-07-10T17:00:37.339Z,20.40
2018-07-10T17:03:04.856Z,20.60
2018-07-10T17:05:32.726Z,20.70
2018-07-10T17:08:00.373Z,20.80
2018-07-10T17:10:28.006Z,20.80
2018-07-10T17:12:55.601Z,20.80
2018-07-10T17:15:23.115Z,20.80
2018-07-10T17:17:51.073Z,20.80
2018-07-10T17:20:18.643Z,20.70
2018-07-10T17:22:46.500Z,20.60
2018-07-10T17:25:14.876Z,20.60
2018-07-10T17:27:46.066Z,20.60
2018-07-10T17:30:13.781Z,20.60
2018-07-10T17:32:41.479Z,20.50
2018-07-10T17:35:10.302Z,20.50
2018-07-10T17:37:42.190Z,20.50
2018-07-10T17:40:10.219Z,20.50
2018-07-10T17:42:38.418Z,20.50
2018-07-10T17:45:08.145Z,20.50
2018-07-10T17:47:35.836Z,20.50
2018-07-10T17:50:03.717Z,20.50
2018-07-10T17:52:31.802Z,20.50
2018-07-10T17:54:59.347Z,20.50
2018-07-10T17:57:28.293Z,20.50
2018-07-10T17:59:57.640Z,20.50
2018-07-10T18:02:25.361Z,20.50
2018-07-10T18:04:52.950Z,20.50
2018-07-10T18:07:20.713Z,20.50
2018-07-10T18:09:48.287Z,20.50
2018-07-10T18:12:15.873Z,20.50
2018-07-10T18:14:43.442Z,20.50
2018-07-10T18:17:10.985Z,20.50
2018-07-10T18:19:38.685Z,20.40
2018-07-10T18:22:06.216Z,20.40
2018-07-10T18:24:34.117Z,20.30
2018-07-10T18:27:01.728Z,20.30
2018-07-10T18:29:29.335Z,20.40
2018-07-10T18:31:57.011Z,20.40
2018-07-10T18:34:24.899Z,20.40
2018-07-10T18:36:52.563Z,20.40
2018-07-10T18:39:20.323Z,20.30
2018-07-10T18:41:47.953Z,20.30
2018-07-10T18:44:15.711Z,20.30
2018-07-10T18:46:43.433Z,20.30
2018-07-10T18:49:25.206Z,20.30
2018-07-10T18:52:01.576Z,20.30
2018-07-10T18:54:35.740Z,20.30
2018-07-10T18:58:12.223Z,20.30
2018-07-10T19:01:54.813Z,20.30
2018-07-10T19:04:29.941Z,20.30
2018-07-10T19:06:57.581Z,20.30
2018-07-10T19:09:29.746Z,20.20
2018-07-10T19:11:57.283Z,20.20
2018-07-10T19:14:24.765Z,20.20
2018-07-10T19:16:52.304Z,20.20
2018-07-10T19:19:20.005Z,20.20
2018-07-10T19:21:55.622Z,20.10
2018-07-10T19:24:24.689Z,20.10
2018-07-10T19:26:53.129Z,20.10
2018-07-10T19:29:26.947Z,20.00
2018-07-10T19:31:54.669Z,20.00
2018-07-10T19:34:22.642Z,19.90
2018-07-10T19:36:50.371Z,19.90
2018-07-10T19:39:17.950Z,19.90
2018-07-10T19:41:45.545Z,19.90
2018-07-10T19:44:13.178Z,19.80
2018-07-10T19:46:40.870Z,19.90
2018-07-10T19:49:08.817Z,19.80
2018-07-10T19:51:38.265Z,19.80
2018-07-10T19:54:11.792Z,19.80
2018-07-10T19:56:39.650Z,19.80
2018-07-10T19:59:08.399Z,19.80
2018-07-10T20:01:45.751Z,19.70
2018-07-10T20:04:22.794Z,19.60
2018-07-10T20:07:08.390Z,19.60
2018-07-10T20:09:52.599Z,19.60
2018-07-10T20:12:29.311Z,19.60
2018-07-10T20:15:01.733Z,19.60
2018-07-10T20:17:32.068Z,19.60
2018-07-10T20:20:18.375Z,19.60
2018-07-10T20:22:56.697Z,19.60
2018-07-10T20:25:34.014Z,19.60
2018-07-10T20:28:12.440Z,19.60
2018-07-10T20:30:48.591Z,19.60
2018-07-10T20:33:33.588Z,19.60
2018-07-10T20:36:04.365Z,19.60
2018-07-10T20:38:32.058Z,19.60
2018-07-10T20:41:02.129Z,19.60
2018-07-10T20:43:30.633Z,19.60
2018-07-10T20:45:58.346Z,19.60
2018-07-10T20:48:47.555Z,19.50
2018-07-10T20:51:15.505Z,19.50
2018-07-10T20:53:51.151Z,19.50
2018-07-10T20:57:29.204Z,19.50
2018-07-10T21:00:08.137Z,19.50
2018-07-10T21:04:51.118Z,19.50
2018-07-10T21:10:09.154Z,19.50
2018-07-10T21:12:56.844Z,19.40
2018-07-10T21:15:33.777Z,19.40
2018-07-10T21:21:42.907Z,19.40
2018-07-10T21:24:20.653Z,19.40
2018-07-10T21:27:09.553Z,19.40
2018-07-10T21:29:46.389Z,19.40
2018-07-10T21:32:21.278Z,19.30
2018-07-10T21:34:50.034Z,19.30
2018-07-10T21:39:30.263Z,19.30
2018-07-10T21:42:09.359Z,19.20
2018-07-10T21:44:55.433Z,19.20
2018-07-10T21:47:35.271Z,19.20
2018-07-10T21:50:04.244Z,19.20
2018-07-10T21:52:31.829Z,19.20
2018-07-10T21:54:59.467Z,19.20
2018-07-10T21:57:36.857Z,19.10
2018-07-10T22:00:04.566Z,19.10
2018-07-10T22:02:32.158Z,19.10
2018-07-10T22:04:59.659Z,19.10
2018-07-10T22:07:28.965Z,19.10
2018-07-10T22:10:02.010Z,19.10
2018-07-10T22:12:29.618Z,19.00
2018-07-10T22:14:57.395Z,19.00
2018-07-10T22:17:26.112Z,18.90
2018-07-10T22:19:54.910Z,19.00
2018-07-10T22:22:26.375Z,19.00
2018-07-10T22:24:55.982Z,18.90
2018-07-10T22:27:23.584Z,18.90
2018-07-10T22:29:59.776Z,18.90
2018-07-10T22:32:32.986Z,18.90
2018-07-10T22:35:00.511Z,18.90
2018-07-10T22:39:55.561Z,18.80
2018-07-10T22:42:23.120Z,18.80
2018-07-10T22:44:51.994Z,18.80
2018-07-10T22:47:26.981Z,18.80
2018-07-10T22:49:54.623Z,18.70
2018-07-10T22:52:22.503Z,18.80
2018-07-10T22:54:50.113Z,18.70
2018-07-10T22:57:17.786Z,18.70
2018-07-10T22:59:45.350Z,18.70
2018-07-10T23:02:12.926Z,18.70
2018-07-10T23:04:40.490Z,18.70
2018-07-10T23:07:08.425Z,18.60
2018-07-10T23:09:36.254Z,18.60
2018-07-10T23:12:03.977Z,18.60
2018-07-10T23:14:31.690Z,18.60
2018-07-10T23:16:59.249Z,18.60
2018-07-10T23:19:27.395Z,18.60
2018-07-10T23:21:54.930Z,18.50
2018-07-10T23:26:50.265Z,18.50
2018-07-10T23:29:24.219Z,18.50
2018-07-10T23:31:51.754Z,18.50
2018-07-10T23:34:20.114Z,18.50
2018-07-10T23:36:50.513Z,18.50
2018-07-10T23:39:19.569Z,18.50
2018-07-10T23:44:15.510Z,18.50
2018-07-10T23:46:52.190Z,18.50
2018-07-10T23:49:20.138Z,18.40
2018-07-10T23:51:59.217Z,18.40
2018-07-10T23:54:26.825Z,18.50
2018-07-10T23:56:54.330Z,18.50
2018-07-10T23:59:21.942Z,18.50
